createdAt,value
2019-02-23T00:00:18.357Z,19.25
2019-02-23T00:01:20.283Z,19.25
2019-02-23T00:02:18.332Z,19.25
2019-02-23T00:03:18.715Z,19.25
2019-02-23T00:04:18.456Z,19.25
2019-02-23T00:05:18.752Z,19.25
2019-02-23T00:06:30.397Z,19.25
2019-02-23T00:07:18.949Z,19.25
2019-02-23T00:08:18.368Z,19.25
2019-02-23T00:09:18.636Z,19.25
2019-02-23T00:10:19.281Z,19.25
2019-02-23T00:11:18.966Z,19.25
2019-02-23T00:12:18.464Z,19.25
2019-02-23T00:13:18.657Z,19.25
2019-02-23T00:14:18.342Z,19.25
2019-02-23T00:15:18.404Z,19.25
2019-02-23T00:16:20.333Z,19.25
2019-02-23T00:17:18.796Z,19.25
2019-02-23T00:18:18.740Z,19.25
2019-02-23T00:19:25.447Z,19.25
2019-02-23T00:20:18.372Z,19.25
2019-02-23T00:21:18.666Z,19.25
2019-02-23T00:22:18.736Z,19.25
2019-02-23T00:23:18.764Z,19.25
2019-02-23T00:24:18.948Z,19.25
2019-02-23T00:25:18.647Z,19.25
2019-02-23T00:26:18.282Z,19.25
2019-02-23T00:27:18.775Z,19.25
2019-02-23T00:28:18.718Z,19.25
2019-02-23T00:29:18.710Z,19.25
2019-02-23T00:30:18.688Z,19.25
2019-02-23T00:31:18.420Z,19.25
2019-02-23T00:32:19.090Z,19.25
2019-02-23T00:33:19.648Z,19.25
2019-02-23T00:34:19.189Z,19.25
2019-02-23T00:35:19.059Z,19.25
2019-02-23T00:36:18.862Z,19.25
2019-02-23T00:37:18.759Z,19
2019-02-23T00:38:18.275Z,19
2019-02-23T00:39:18.111Z,19
2019-02-23T00:40:18.260Z,19.25
2019-02-23T00:41:18.568Z,19
2019-02-23T00:42:18.575Z,19
2019-02-23T00:43:18.683Z,19
2019-02-23T00:44:19.114Z,19
2019-02-23T00:45:18.281Z,19
2019-02-23T00:46:18.724Z,19
2019-02-23T00:47:18.392Z,19
2019-02-23T00:48:18.270Z,19
2019-02-23T00:49:18.750Z,19
2019-02-23T00:50:18.733Z,19
2019-02-23T00:51:18.548Z,19
2019-02-23T00:52:18.733Z,19
2019-02-23T00:53:18.356Z,19
2019-02-23T00:54:19.276Z,19
2019-02-23T00:55:18.621Z,19
2019-02-23T00:56:18.443Z,19
2019-02-23T00:57:18.674Z,19
2019-02-23T00:58:18.992Z,19
2019-02-23T00:59:18.711Z,19
2019-02-23T01:00:18.647Z,19
2019-02-23T01:01:18.350Z,19
2019-02-23T01:02:18.323Z,19
2019-02-23T01:03:18.631Z,19
2019-02-23T01:04:18.730Z,19
2019-02-23T01:05:18.220Z,19
2019-02-23T01:06:20.174Z,19
2019-02-23T01:07:18.943Z,19
2019-02-23T01:08:18.769Z,19
2019-02-23T01:09:18.243Z,19
2019-02-23T01:10:19.831Z,19
2019-02-23T01:11:18.367Z,19
2019-02-23T01:12:18.487Z,19
2019-02-23T01:13:18.386Z,19
2019-02-23T01:14:18.495Z,19
2019-02-23T01:15:19.294Z,19
2019-02-23T01:16:19.041Z,19
2019-02-23T01:17:18.288Z,19
2019-02-23T01:18:18.833Z,19
2019-02-23T01:19:18.545Z,19
2019-02-23T01:20:18.738Z,19
2019-02-23T01:21:18.776Z,19
2019-02-23T01:22:18.477Z,19
2019-02-23T01:23:20.502Z,19
2019-02-23T01:24:18.747Z,19
2019-02-23T01:25:18.652Z,19
2019-02-23T01:26:18.687Z,19
2019-02-23T01:27:18.882Z,19
2019-02-23T01:28:18.196Z,19
2019-02-23T01:29:18.406Z,19
2019-02-23T01:30:18.704Z,19
2019-02-23T01:31:18.715Z,19
2019-02-23T01:32:18.618Z,19
2019-02-23T01:33:18.928Z,19
2019-02-23T01:34:18.694Z,19
2019-02-23T01:35:18.731Z,19
2019-02-23T01:36:18.446Z,19
2019-02-23T01:37:18.983Z,19
2019-02-23T01:38:20.286Z,19
2019-02-23T01:39:18.188Z,19
2019-02-23T01:40:18.692Z,19
2019-02-23T01:41:18.667Z,19
2019-02-23T01:42:18.177Z,19
2019-02-23T01:43:18.731Z,19
2019-02-23T01:44:18.330Z,19
2019-02-23T01:45:18.287Z,19
2019-02-23T01:46:18.608Z,19
2019-02-23T01:47:18.744Z,19
2019-02-23T01:48:18.406Z,19
2019-02-23T01:49:18.373Z,19
2019-02-23T01:50:18.437Z,19
2019-02-23T01:51:18.274Z,19
2019-02-23T01:52:18.330Z,19
2019-02-23T01:53:20.310Z,18.75
2019-02-23T01:54:18.373Z,18.75
2019-02-23T01:55:18.362Z,19
2019-02-23T01:56:18.457Z,18.75
2019-02-23T01:57:19.225Z,18.75
2019-02-23T01:58:19.321Z,18.75
2019-02-23T01:59:18.738Z,18.75
2019-02-23T02:00:18.368Z,18.75
2019-02-23T02:01:18.656Z,18.75
2019-02-23T02:02:18.174Z,18.75
2019-02-23T02:03:20.214Z,18.75
2019-02-23T02:04:18.850Z,18.75
2019-02-23T02:05:18.554Z,18.75
2019-02-23T02:06:18.356Z,18.75
2019-02-23T02:07:18.768Z,18.75
2019-02-23T02:08:18.300Z,18.75
2019-02-23T02:09:19.323Z,18.75
2019-02-23T02:10:19.137Z,18.75
2019-02-23T02:11:18.399Z,18.75
2019-02-23T02:12:18.388Z,18.75
2019-02-23T02:13:18.776Z,18.75
2019-02-23T02:14:18.722Z,18.75
2019-02-23T02:15:18.802Z,18.75
2019-02-23T02:16:19.140Z,18.75
2019-02-23T02:17:18.343Z,18.75
2019-02-23T02:18:18.622Z,18.75
2019-02-23T02:19:18.743Z,18.75
2019-02-23T02:20:18.983Z,18.75
2019-02-23T02:21:18.671Z,18.75
2019-02-23T02:22:18.366Z,18.75
2019-02-23T02:23:18.491Z,18.75
2019-02-23T02:24:18.785Z,18.75
2019-02-23T02:25:18.986Z,18.75
2019-02-23T02:26:18.494Z,18.75
2019-02-23T02:27:18.828Z,18.75
2019-02-23T02:28:18.693Z,18.75
2019-02-23T02:29:18.716Z,18.75
2019-02-23T02:30:18.732Z,18.75
2019-02-23T02:31:18.543Z,18.75
2019-02-23T02:32:20.205Z,18.75
2019-02-23T02:33:18.295Z,18.75
2019-02-23T02:34:18.469Z,18.75
2019-02-23T02:35:18.804Z,18.75
2019-02-23T02:36:18.485Z,18.75
2019-02-23T02:37:18.241Z,18.75
2019-02-23T02:38:18.803Z,18.75
2019-02-23T02:39:18.486Z,18.75
2019-02-23T02:40:18.575Z,18.75
2019-02-23T02:41:18.935Z,18.75
2019-02-23T02:42:18.878Z,18.75
2019-02-23T02:43:18.317Z,18.75
2019-02-23T02:44:18.750Z,18.75
2019-02-23T02:45:18.253Z,18.75
2019-02-23T02:46:18.435Z,18.75
2019-02-23T02:47:19.634Z,18.75
2019-02-23T02:48:18.448Z,18.75
2019-02-23T02:49:18.914Z,18.75
2019-02-23T02:50:25.098Z,18.75
2019-02-23T02:51:18.255Z,18.75
2019-02-23T02:52:18.699Z,18.75
2019-02-23T02:53:18.452Z,18.75
2019-02-23T02:54:18.515Z,18.75
2019-02-23T02:55:18.850Z,18.75
2019-02-23T02:56:19.144Z,18.75
2019-02-23T02:57:18.430Z,18.75
2019-02-23T02:58:18.720Z,18.75
2019-02-23T02:59:18.503Z,18.75
2019-02-23T03:00:18.568Z,18.75
2019-02-23T03:01:18.407Z,18.75
2019-02-23T03:02:18.786Z,18.75
2019-02-23T03:03:18.108Z,18.75
2019-02-23T03:04:18.731Z,18.75
2019-02-23T03:05:18.818Z,18.75
2019-02-23T03:06:18.896Z,18.75
2019-02-23T03:07:18.699Z,18.75
2019-02-23T03:08:18.652Z,18.75
2019-02-23T03:09:18.255Z,18.75
2019-02-23T03:10:18.942Z,18.75
2019-02-23T03:11:18.544Z,18.75
2019-02-23T03:12:18.738Z,18.75
2019-02-23T03:13:18.861Z,18.75
2019-02-23T03:14:18.244Z,18.75
2019-02-23T03:15:18.634Z,18.75
2019-02-23T03:16:18.402Z,18.75
2019-02-23T03:17:18.196Z,18.75
2019-02-23T03:18:18.256Z,18.75
2019-02-23T03:19:18.188Z,18.75
2019-02-23T03:20:18.216Z,18.75
2019-02-23T03:21:18.569Z,18.5
2019-02-23T03:22:20.033Z,18.75
2019-02-23T03:23:18.185Z,18.75
2019-02-23T03:24:18.244Z,18.75
2019-02-23T03:25:18.120Z,18.75
2019-02-23T03:26:20.217Z,18.5
2019-02-23T03:27:19.128Z,18.5
2019-02-23T03:28:18.730Z,18.5
2019-02-23T03:29:18.348Z,18.5
2019-02-23T03:30:18.718Z,18.5
2019-02-23T03:31:18.352Z,18.5
2019-02-23T03:32:18.262Z,18.75
2019-02-23T03:33:18.510Z,18.5
2019-02-23T03:34:18.298Z,18.5
2019-02-23T03:35:19.017Z,18.5
2019-02-23T03:36:18.126Z,18.5
2019-02-23T03:37:18.356Z,18.5
2019-02-23T03:38:18.642Z,18.5
2019-02-23T03:39:18.404Z,18.5
2019-02-23T03:40:18.525Z,18.5
2019-02-23T03:41:18.327Z,18.5
2019-02-23T03:42:18.371Z,18.5
2019-02-23T03:43:18.543Z,18.5
2019-02-23T03:44:18.175Z,18.5
2019-02-23T03:45:18.463Z,18.5
2019-02-23T03:46:18.980Z,18.5
2019-02-23T03:47:18.553Z,18.5
2019-02-23T03:48:18.290Z,18.5
2019-02-23T03:49:19.181Z,18.5
2019-02-23T03:50:18.483Z,18.5
2019-02-23T03:51:18.537Z,18.5
2019-02-23T03:52:19.279Z,18.5
2019-02-23T03:53:18.245Z,18.5
2019-02-23T03:54:18.732Z,18.5
2019-02-23T03:55:18.829Z,18.5
2019-02-23T03:56:18.414Z,18.5
2019-02-23T03:57:18.364Z,18.5
2019-02-23T03:58:18.763Z,18.5
2019-02-23T03:59:18.152Z,18.5
2019-02-23T04:00:18.283Z,18.5
2019-02-23T04:01:18.449Z,18.5
2019-02-23T04:02:18.845Z,18.5
2019-02-23T04:03:20.216Z,18.5
2019-02-23T04:04:18.681Z,18.5
2019-02-23T04:05:18.405Z,18.5
2019-02-23T04:06:18.249Z,18.5
2019-02-23T04:07:19.234Z,18.5
2019-02-23T04:08:18.920Z,18.5
2019-02-23T04:09:18.310Z,18.5
2019-02-23T04:10:20.053Z,18.5
2019-02-23T04:11:18.289Z,18.5
2019-02-23T04:12:18.968Z,18.5
2019-02-23T04:13:20.233Z,18.5
2019-02-23T04:14:18.657Z,18.5
2019-02-23T04:15:18.852Z,18.5
2019-02-23T04:16:18.207Z,18.5
2019-02-23T04:17:18.704Z,18.5
2019-02-23T04:18:18.609Z,18.5
2019-02-23T04:19:18.512Z,18.5
2019-02-23T04:20:18.365Z,18.5
2019-02-23T04:21:18.285Z,18.5
2019-02-23T04:22:18.822Z,18.5
2019-02-23T04:23:20.195Z,18.5
2019-02-23T04:24:18.414Z,18.5
2019-02-23T04:25:18.608Z,18.5
2019-02-23T04:26:18.383Z,18.5
2019-02-23T04:27:18.331Z,18.5
2019-02-23T04:28:18.577Z,18.5
2019-02-23T04:29:19.378Z,18.5
2019-02-23T04:30:18.301Z,18.5
2019-02-23T04:31:18.590Z,18.5
2019-02-23T04:32:18.679Z,18.5
2019-02-23T04:33:20.100Z,18.5
2019-02-23T04:34:18.598Z,18.5
2019-02-23T04:35:18.385Z,18.5
2019-02-23T04:36:18.342Z,18.5
2019-02-23T04:37:18.433Z,18.5
2019-02-23T04:38:18.957Z,18.5
2019-02-23T04:39:18.628Z,18.5
2019-02-23T04:40:18.460Z,18.5
2019-02-23T04:41:18.645Z,18.5
2019-02-23T04:42:18.312Z,18.5
2019-02-23T04:43:18.943Z,18.5
2019-02-23T04:44:18.522Z,18.5
2019-02-23T04:45:18.398Z,18.5
2019-02-23T04:46:18.789Z,18.5
2019-02-23T04:47:18.132Z,18.5
2019-02-23T04:48:18.450Z,18.5
2019-02-23T04:49:18.695Z,18.5
2019-02-23T04:50:19.455Z,18.5
2019-02-23T04:51:19.142Z,18.5
2019-02-23T04:52:18.757Z,18.5
2019-02-23T04:53:18.230Z,18.5
2019-02-23T04:54:18.568Z,18.5
2019-02-23T04:55:18.536Z,18.5
2019-02-23T04:56:20.113Z,18.5
2019-02-23T04:57:18.364Z,18.5
2019-02-23T04:58:19.982Z,18.5
2019-02-23T04:59:18.494Z,18.5
2019-02-23T05:00:18.467Z,18.5
2019-02-23T05:01:18.476Z,18.5
2019-02-23T05:02:18.826Z,18.5
2019-02-23T05:03:19.195Z,18.5
2019-02-23T05:04:19.930Z,18.5
2019-02-23T05:05:18.624Z,18.5
2019-02-23T05:06:18.449Z,18.5
2019-02-23T05:07:18.279Z,18.5
2019-02-23T05:08:18.540Z,18.5
2019-02-23T05:09:18.867Z,18.5
2019-02-23T05:10:18.539Z,18.5
2019-02-23T05:11:18.396Z,18.75
2019-02-23T05:12:18.413Z,18.75
2019-02-23T05:13:18.280Z,18.75
2019-02-23T05:14:18.789Z,18.75
2019-02-23T05:15:18.317Z,18.75
2019-02-23T05:16:18.481Z,18.75
2019-02-23T05:17:18.761Z,18.75
2019-02-23T05:18:18.532Z,18.75
2019-02-23T05:19:18.615Z,18.75
2019-02-23T05:20:18.738Z,18.75
2019-02-23T05:21:27.202Z,18.75
2019-02-23T05:22:18.349Z,18.75
2019-02-23T05:23:18.738Z,18.75
2019-02-23T05:24:18.636Z,18.75
2019-02-23T05:25:18.229Z,18.75
2019-02-23T05:26:18.685Z,18.75
2019-02-23T05:27:18.177Z,19
2019-02-23T05:28:18.923Z,19
2019-02-23T05:29:18.062Z,19
2019-02-23T05:30:18.480Z,19
2019-02-23T05:31:18.337Z,19
2019-02-23T05:32:18.290Z,19
2019-02-23T05:33:19.022Z,19
2019-02-23T05:34:18.146Z,19
2019-02-23T05:35:18.432Z,19
2019-02-23T05:36:18.378Z,19
2019-02-23T05:37:18.635Z,19
2019-02-23T05:38:18.147Z,19
2019-02-23T05:39:18.372Z,19
2019-02-23T05:40:18.525Z,19
2019-02-23T05:41:18.193Z,19
2019-02-23T05:42:18.558Z,19
2019-02-23T05:43:18.488Z,19
2019-02-23T05:44:18.274Z,19
2019-02-23T05:45:18.727Z,19.25
2019-02-23T05:46:18.550Z,19.25
2019-02-23T05:47:18.618Z,19.25
2019-02-23T05:48:18.487Z,19.25
2019-02-23T05:49:18.613Z,19.25
2019-02-23T05:50:18.294Z,19.25
2019-02-23T05:51:18.365Z,19.25
2019-02-23T05:52:18.220Z,19.25
2019-02-23T05:53:18.297Z,19.25
2019-02-23T05:54:18.398Z,19.25
2019-02-23T05:55:20.070Z,19.25
2019-02-23T05:56:18.394Z,19.25
2019-02-23T05:57:18.479Z,19.25
2019-02-23T05:58:18.092Z,19.25
2019-02-23T05:59:18.522Z,19.25
2019-02-23T06:00:18.408Z,19.25
2019-02-23T06:01:18.595Z,19.25
2019-02-23T06:02:18.345Z,19.25
2019-02-23T06:03:19.958Z,19.25
2019-02-23T06:04:19.973Z,19.25
2019-02-23T06:05:18.756Z,19.25
2019-02-23T06:06:18.542Z,19.5
2019-02-23T06:07:18.384Z,19.5
2019-02-23T06:08:18.241Z,19.5
2019-02-23T06:09:18.870Z,19.5
2019-02-23T06:10:18.598Z,19.5
2019-02-23T06:11:18.365Z,19.5
2019-02-23T06:12:18.393Z,19.5
2019-02-23T06:13:18.175Z,19.5
2019-02-23T06:14:18.394Z,19.5
2019-02-23T06:15:18.108Z,19.5
2019-02-23T06:16:19.217Z,19.5
2019-02-23T06:17:19.040Z,19.5
2019-02-23T06:18:18.264Z,19.5
2019-02-23T06:19:18.467Z,19.5
2019-02-23T06:20:18.962Z,19.5
2019-02-23T06:21:18.430Z,19.5
2019-02-23T06:22:18.767Z,19.5
2019-02-23T06:23:20.155Z,19.5
2019-02-23T06:24:18.110Z,19.5
2019-02-23T06:25:18.228Z,19.5
2019-02-23T06:26:18.101Z,19.5
2019-02-23T06:27:18.139Z,19.5
2019-02-23T06:28:18.021Z,19.5
2019-02-23T06:29:18.200Z,19.5
2019-02-23T06:30:18.740Z,19.5
2019-02-23T06:31:19.128Z,19.5
2019-02-23T06:32:18.746Z,19.75
2019-02-23T06:33:18.450Z,19.5
2019-02-23T06:34:18.873Z,19.5
2019-02-23T06:35:18.895Z,19.5
2019-02-23T06:36:18.482Z,19.75
2019-02-23T06:37:18.433Z,19.75
2019-02-23T06:38:19.634Z,19.75
2019-02-23T06:39:18.383Z,19.75
2019-02-23T06:40:18.509Z,19.75
2019-02-23T06:41:18.898Z,19.75
2019-02-23T06:42:18.195Z,19.75
2019-02-23T06:43:18.399Z,19.75
2019-02-23T06:44:18.304Z,19.75
2019-02-23T06:45:18.255Z,19.75
2019-02-23T06:46:18.547Z,19.75
2019-02-23T06:47:18.328Z,19.75
2019-02-23T06:48:20.402Z,19.75
2019-02-23T06:49:18.419Z,19.75
2019-02-23T06:50:18.159Z,19.75
2019-02-23T06:51:18.843Z,19.75
2019-02-23T06:52:18.363Z,19.75
2019-02-23T06:53:18.485Z,19.75
2019-02-23T06:54:18.448Z,19.75
2019-02-23T06:55:18.699Z,19.75
2019-02-23T06:56:18.424Z,19.75
2019-02-23T06:57:18.709Z,19.75
2019-02-23T06:58:18.451Z,19.75
2019-02-23T06:59:18.274Z,19.75
2019-02-23T07:00:19.146Z,19.75
2019-02-23T07:01:18.091Z,19.75
2019-02-23T07:02:18.413Z,19.75
2019-02-23T07:03:18.481Z,19.75
2019-02-23T07:04:18.321Z,19.75
2019-02-23T07:05:18.731Z,19.75
2019-02-23T07:06:18.984Z,19.75
2019-02-23T07:07:18.712Z,19.75
2019-02-23T07:08:18.673Z,19.75
2019-02-23T07:09:18.500Z,19.75
2019-02-23T07:10:18.224Z,19.75
2019-02-23T07:11:18.228Z,19.75
2019-02-23T07:12:18.422Z,19.75
2019-02-23T07:13:18.818Z,19.75
2019-02-23T07:14:18.203Z,19.75
2019-02-23T07:15:18.217Z,19.75
2019-02-23T07:16:18.679Z,19.75
2019-02-23T07:17:18.699Z,19.75
2019-02-23T07:18:18.210Z,19.75
2019-02-23T07:19:18.320Z,19.75
2019-02-23T07:20:18.354Z,19.75
2019-02-23T07:21:19.065Z,19.75
2019-02-23T07:22:19.024Z,19.75
2019-02-23T07:23:18.882Z,19.75
2019-02-23T07:24:18.512Z,19.75
2019-02-23T07:25:18.842Z,19.75
2019-02-23T07:26:18.244Z,19.75
2019-02-23T07:27:18.414Z,19.75
2019-02-23T07:28:18.538Z,19.75
2019-02-23T07:29:18.731Z,19.75
2019-02-23T07:30:18.122Z,19.75
2019-02-23T07:31:18.311Z,19.75
2019-02-23T07:32:18.368Z,19.75
2019-02-23T07:33:33.468Z,19.75
2019-02-23T07:34:18.829Z,19.75
2019-02-23T07:35:18.231Z,19.75
2019-02-23T07:36:18.256Z,19.75
2019-02-23T07:37:18.308Z,19.75
2019-02-23T07:38:18.386Z,19.75
2019-02-23T07:39:18.243Z,19.75
2019-02-23T07:40:18.305Z,19.75
2019-02-23T07:41:18.323Z,19.75
2019-02-23T07:42:18.385Z,19.75
2019-02-23T07:43:18.997Z,19.75
2019-02-23T07:44:18.213Z,19.75
2019-02-23T07:45:18.546Z,19.75
2019-02-23T07:46:18.364Z,19.75
2019-02-23T07:47:18.880Z,19.75
2019-02-23T07:48:19.143Z,19.75
2019-02-23T07:49:19.095Z,19.75
2019-02-23T07:50:18.561Z,19.75
2019-02-23T07:51:18.301Z,19.75
2019-02-23T07:52:26.969Z,19.75
2019-02-23T07:53:18.500Z,19.75
2019-02-23T07:54:18.202Z,19.75
2019-02-23T07:55:18.306Z,19.75
2019-02-23T07:56:18.296Z,19.75
2019-02-23T07:57:18.213Z,19.75
2019-02-23T07:58:18.068Z,19.75
2019-02-23T07:59:18.546Z,19.75
2019-02-23T08:00:18.276Z,19.75
2019-02-23T08:01:18.374Z,19.75
2019-02-23T08:02:18.275Z,19.75
2019-02-23T08:03:18.394Z,19.75
2019-02-23T08:04:18.880Z,19.75
2019-02-23T08:05:20.144Z,19.75
2019-02-23T08:06:19.623Z,19.75
2019-02-23T08:07:18.798Z,20
2019-02-23T08:08:19.165Z,19.75
2019-02-23T08:09:18.964Z,19.75
2019-02-23T08:10:18.133Z,19.75
2019-02-23T08:11:20.187Z,19.75
2019-02-23T08:12:18.024Z,19.75
2019-02-23T08:13:18.639Z,19.75
2019-02-23T08:14:18.842Z,19.75
2019-02-23T08:15:18.534Z,19.75
2019-02-23T08:16:18.342Z,20
2019-02-23T08:17:18.223Z,19.75
2019-02-23T08:18:18.489Z,19.75
2019-02-23T08:19:18.422Z,20
2019-02-23T08:20:18.152Z,19.75
2019-02-23T08:21:18.356Z,20
2019-02-23T08:22:18.694Z,20
2019-02-23T08:23:18.276Z,20
2019-02-23T08:24:18.429Z,20
2019-02-23T08:25:18.897Z,20
2019-02-23T08:26:18.797Z,20
2019-02-23T08:27:18.346Z,20
2019-02-23T08:28:18.612Z,20
2019-02-23T08:29:18.165Z,20
2019-02-23T08:30:18.262Z,20
2019-02-23T08:31:18.377Z,20
2019-02-23T08:32:18.615Z,20
2019-02-23T08:33:18.706Z,20
2019-02-23T08:34:18.377Z,20
2019-02-23T08:35:20.016Z,20
2019-02-23T08:36:18.605Z,20
2019-02-23T08:37:18.265Z,20
2019-02-23T08:38:19.002Z,20
2019-02-23T08:39:18.423Z,20
2019-02-23T08:40:18.391Z,20
2019-02-23T08:41:18.625Z,20
2019-02-23T08:42:18.354Z,20
2019-02-23T08:43:21.003Z,20
2019-02-23T08:44:18.675Z,20
2019-02-23T08:45:18.243Z,20
2019-02-23T08:46:18.402Z,20
2019-02-23T08:47:19.599Z,20
2019-02-23T08:48:18.387Z,20
2019-02-23T08:49:18.656Z,20
2019-02-23T08:50:18.223Z,20
2019-02-23T08:51:18.929Z,20
2019-02-23T08:52:18.222Z,20
2019-02-23T08:53:18.528Z,20
2019-02-23T08:54:18.066Z,20
2019-02-23T08:55:18.456Z,20
2019-02-23T08:56:18.320Z,20
2019-02-23T08:57:18.666Z,20
2019-02-23T08:58:18.364Z,20
2019-02-23T08:59:18.300Z,20
2019-02-23T09:00:19.977Z,20
2019-02-23T09:01:18.135Z,20
2019-02-23T09:02:18.237Z,20
2019-02-23T09:03:18.398Z,20
2019-02-23T09:04:18.487Z,20
2019-02-23T09:05:17.947Z,20
2019-02-23T09:06:18.330Z,20
2019-02-23T09:07:20.086Z,20
2019-02-23T09:08:19.024Z,20
2019-02-23T09:09:18.839Z,20
2019-02-23T09:10:18.580Z,20
2019-02-23T09:11:19.948Z,20
2019-02-23T09:12:18.334Z,20
2019-02-23T09:13:18.448Z,20
2019-02-23T09:14:18.352Z,20
2019-02-23T09:15:18.451Z,20
2019-02-23T09:16:18.157Z,20
2019-02-23T09:17:18.532Z,20
2019-02-23T09:18:18.286Z,20
2019-02-23T09:19:19.775Z,20.25
2019-02-23T09:20:29.866Z,20.25
2019-02-23T09:21:18.302Z,20.25
2019-02-23T09:22:18.631Z,20.25
2019-02-23T09:23:18.223Z,20.25
2019-02-23T09:24:18.441Z,20.25
2019-02-23T09:25:18.356Z,20.25
2019-02-23T09:26:18.436Z,20.25
2019-02-23T09:27:18.217Z,20.25
2019-02-23T09:28:18.671Z,20.25
2019-02-23T09:29:18.815Z,20.25
2019-02-23T09:30:19.053Z,20.25
2019-02-23T09:31:19.105Z,20.25
2019-02-23T09:32:18.279Z,20.25
2019-02-23T09:33:19.024Z,20.25
2019-02-23T09:34:18.113Z,20.25
2019-02-23T09:35:18.353Z,20.25
2019-02-23T09:36:18.253Z,20.25
2019-02-23T09:37:18.298Z,20.25
2019-02-23T09:38:18.433Z,20.25
2019-02-23T09:39:18.166Z,20.25
2019-02-23T09:40:19.581Z,20.25
2019-02-23T09:41:18.467Z,20.25
2019-02-23T09:42:18.286Z,20.25
2019-02-23T09:43:19.050Z,20.25
2019-02-23T09:44:18.524Z,20.25
2019-02-23T09:45:18.498Z,20.25
2019-02-23T09:46:17.997Z,20.25
2019-02-23T09:47:18.056Z,20.25
2019-02-23T09:48:18.602Z,20.25
2019-02-23T09:49:18.371Z,20.25
2019-02-23T09:50:18.666Z,20.5
2019-02-23T09:51:17.898Z,20.25
2019-02-23T09:52:17.978Z,20.25
2019-02-23T09:53:18.531Z,20.25
2019-02-23T09:54:18.128Z,20.25
2019-02-23T09:55:18.417Z,20.5
2019-02-23T09:56:18.318Z,20.5
2019-02-23T09:57:18.073Z,20.25
2019-02-23T09:58:19.224Z,20.5
2019-02-23T09:59:18.194Z,20.25
2019-02-23T10:00:18.062Z,20.5
2019-02-23T10:01:18.303Z,20.5
2019-02-23T10:02:18.796Z,20.5
2019-02-23T10:03:18.311Z,20.5
2019-02-23T10:04:18.177Z,20.5
2019-02-23T10:05:18.245Z,20.5
2019-02-23T10:06:18.739Z,20.5
2019-02-23T10:07:18.643Z,20.5
2019-02-23T10:08:18.419Z,20.5
2019-02-23T10:09:18.441Z,20.5
2019-02-23T10:10:18.192Z,20.5
2019-02-23T10:11:18.844Z,20.5
2019-02-23T10:12:18.385Z,20.5
2019-02-23T10:13:18.892Z,20.5
2019-02-23T10:14:18.154Z,20.5
2019-02-23T10:15:18.613Z,20.5
2019-02-23T10:16:18.727Z,20.5
2019-02-23T10:17:19.034Z,20.5
2019-02-23T10:18:18.062Z,20.5
2019-02-23T10:19:18.439Z,20.5
2019-02-23T10:20:18.400Z,20.5
2019-02-23T10:21:19.186Z,20.5
2019-02-23T10:22:18.648Z,20.5
2019-02-23T10:23:22.738Z,20.5
2019-02-23T10:24:18.155Z,20.5
2019-02-23T10:25:18.271Z,20.5
2019-02-23T10:26:18.082Z,20.5
2019-02-23T10:27:18.570Z,20.5
2019-02-23T10:28:18.238Z,20.5
2019-02-23T10:29:18.287Z,20.5
2019-02-23T10:30:18.495Z,20.5
2019-02-23T10:31:18.628Z,20.5
2019-02-23T10:32:18.325Z,20.5
2019-02-23T10:33:18.206Z,20.5
2019-02-23T10:34:18.534Z,20.5
2019-02-23T10:35:19.066Z,20.5
2019-02-23T10:36:20.102Z,20.25
2019-02-23T10:37:18.441Z,20.5
2019-02-23T10:38:18.283Z,20.5
2019-02-23T10:39:18.265Z,20.25
2019-02-23T10:40:18.049Z,20.25
2019-02-23T10:41:18.152Z,20.25
2019-02-23T10:42:18.470Z,20.25
2019-02-23T10:43:18.311Z,20.25
2019-02-23T10:44:18.434Z,20.25
2019-02-23T10:45:18.588Z,20.25
2019-02-23T10:46:18.006Z,20.25
2019-02-23T10:47:18.166Z,20.25
2019-02-23T10:48:18.573Z,20.25
2019-02-23T10:49:18.071Z,20.25
2019-02-23T10:50:18.669Z,20.25
2019-02-23T10:51:18.750Z,20.25
2019-02-23T10:52:18.440Z,20.25
2019-02-23T10:53:18.158Z,20.25
2019-02-23T10:54:18.219Z,20.25
2019-02-23T10:55:18.136Z,20.25
2019-02-23T10:56:18.163Z,20.25
2019-02-23T10:57:19.611Z,20.25
2019-02-23T10:58:18.181Z,20.25
2019-02-23T10:59:18.214Z,20.25
2019-02-23T11:00:18.053Z,20.25
2019-02-23T11:01:18.953Z,20.25
2019-02-23T11:02:18.226Z,20.25
2019-02-23T11:03:18.417Z,20.25
2019-02-23T11:04:18.365Z,20.25
2019-02-23T11:05:18.637Z,20.25
2019-02-23T11:06:18.325Z,20.25
2019-02-23T11:07:19.991Z,20.25
2019-02-23T11:08:18.188Z,20.25
2019-02-23T11:09:18.428Z,20.25
2019-02-23T11:10:18.274Z,20.25
2019-02-23T11:11:17.868Z,20.25
2019-02-23T11:12:17.970Z,20.25
2019-02-23T11:13:18.402Z,20.25
2019-02-23T11:14:18.221Z,20.25
2019-02-23T11:15:18.185Z,20.25
2019-02-23T11:16:17.990Z,20.25
2019-02-23T11:17:18.439Z,20.25
2019-02-23T11:18:19.227Z,20.25
2019-02-23T11:19:18.653Z,20.25
2019-02-23T11:20:18.467Z,20.25
2019-02-23T11:21:18.862Z,20.25
2019-02-23T11:22:18.131Z,20.25
2019-02-23T11:23:18.055Z,20.25
2019-02-23T11:24:18.598Z,20.25
2019-02-23T11:25:18.160Z,20.25
2019-02-23T11:26:18.522Z,20.25
2019-02-23T11:27:18.084Z,20.25
2019-02-23T11:28:18.016Z,20.25
2019-02-23T11:29:18.091Z,20.25
2019-02-23T11:30:18.495Z,20.25
2019-02-23T11:31:18.380Z,20.25
2019-02-23T11:32:18.236Z,20.25
2019-02-23T11:33:18.570Z,20.25
2019-02-23T11:34:18.243Z,20.25
2019-02-23T11:35:18.200Z,20.25
2019-02-23T11:36:18.078Z,20.25
2019-02-23T11:37:18.316Z,20.25
2019-02-23T11:38:18.225Z,20.25
2019-02-23T11:39:18.075Z,20.25
2019-02-23T11:40:19.925Z,20.25
2019-02-23T11:41:18.397Z,20.25
2019-02-23T11:42:18.057Z,20.25
2019-02-23T11:43:18.135Z,20.25
2019-02-23T11:44:18.730Z,20.25
2019-02-23T11:45:18.162Z,20.25
2019-02-23T11:46:18.137Z,20.25
2019-02-23T11:47:18.276Z,20.25
2019-02-23T11:48:18.835Z,20.25
2019-02-23T11:49:18.337Z,20.25
2019-02-23T11:50:18.250Z,20.25
2019-02-23T11:51:18.221Z,20.25
2019-02-23T11:52:18.491Z,20.25
2019-02-23T11:53:18.170Z,20.25
2019-02-23T11:54:18.377Z,20.25
2019-02-23T11:55:18.463Z,20.25
2019-02-23T11:56:18.087Z,20.25
2019-02-23T11:57:18.328Z,20.25
2019-02-23T11:58:20.051Z,20.25
2019-02-23T11:59:18.952Z,20.25
2019-02-23T12:00:18.982Z,20.25
2019-02-23T12:01:18.760Z,20.25
2019-02-23T12:02:18.754Z,20.25
2019-02-23T12:03:18.597Z,20.25
2019-02-23T12:04:18.001Z,20.25
2019-02-23T12:05:18.192Z,20.25
2019-02-23T12:06:18.442Z,20.25
2019-02-23T12:07:18.268Z,20.25
2019-02-23T12:08:18.269Z,20.25
2019-02-23T12:09:18.226Z,20.25
2019-02-23T12:10:19.023Z,20.25
2019-02-23T12:11:18.419Z,20
2019-02-23T12:12:18.810Z,20.25
2019-02-23T12:13:19.934Z,20.25
2019-02-23T12:14:18.651Z,20.25
2019-02-23T12:15:18.338Z,20.25
2019-02-23T12:16:18.204Z,20.25
2019-02-23T12:17:18.107Z,20.25
2019-02-23T12:18:18.107Z,20.25
2019-02-23T12:19:18.442Z,20.25
2019-02-23T12:20:18.455Z,20.25
2019-02-23T12:21:18.069Z,20.25
2019-02-23T12:22:18.383Z,20.25
2019-02-23T12:23:19.081Z,20.25
2019-02-23T12:24:17.962Z,20.25
2019-02-23T12:25:18.822Z,20.25
2019-02-23T12:26:19.881Z,20.25
2019-02-23T12:27:18.208Z,20.25
2019-02-23T12:28:18.435Z,20.25
2019-02-23T12:29:18.637Z,20.25
2019-02-23T12:30:18.960Z,20.25
2019-02-23T12:31:18.338Z,20.25
2019-02-23T12:32:18.252Z,20.25
2019-02-23T12:33:18.491Z,20.25
2019-02-23T12:34:18.101Z,20.25
2019-02-23T12:35:18.520Z,20.25
2019-02-23T12:36:18.077Z,20.25
2019-02-23T12:37:18.482Z,20.25
2019-02-23T12:38:18.157Z,20.25
2019-02-23T12:39:18.427Z,20.25
2019-02-23T12:40:17.996Z,20.25
2019-02-23T12:41:19.545Z,20.25
2019-02-23T12:42:18.447Z,20.25
2019-02-23T12:43:18.243Z,20.25
2019-02-23T12:44:18.930Z,20.25
2019-02-23T12:45:18.954Z,20.25
2019-02-23T12:46:17.946Z,20.25
2019-02-23T12:47:18.049Z,20.25
2019-02-23T12:48:18.281Z,20.25
2019-02-23T12:49:18.054Z,20.25
2019-02-23T12:50:18.207Z,20.25
2019-02-23T12:51:18.080Z,20.25
2019-02-23T12:52:18.331Z,20.25
2019-02-23T12:53:18.393Z,20.25
2019-02-23T12:54:19.873Z,20.25
2019-02-23T12:55:18.076Z,20.25
2019-02-23T12:56:18.490Z,20.25
2019-02-23T12:57:18.455Z,20
2019-02-23T12:58:18.741Z,20
2019-02-23T12:59:18.439Z,20
2019-02-23T13:00:18.175Z,20
2019-02-23T13:01:19.960Z,20
2019-02-23T13:02:18.016Z,20
2019-02-23T13:03:18.375Z,20
2019-02-23T13:04:18.214Z,20
2019-02-23T13:05:17.965Z,20.25
2019-02-23T13:06:20.037Z,20.25
2019-02-23T13:07:18.084Z,20.25
2019-02-23T13:08:17.817Z,20.25
2019-02-23T13:09:18.119Z,20.25
2019-02-23T13:10:18.259Z,20.25
2019-02-23T13:11:18.350Z,20.25
2019-02-23T13:12:18.422Z,20.25
2019-02-23T13:13:18.239Z,20.25
2019-02-23T13:14:19.087Z,20.25